CheckWX is a tool to help pilots better visualize weather data.  It is not intended as a substitute for an official pre-flight weather briefing.

10:52:30 UTC

KBDU METAR
Boulder Municipal Airport
Boulder, Colorado, USA
Current

23 mins ago

KBDU 311030Z AUTO 00000KT 10SM CLR 13/11 A3010 RMK AO2
Observed
May-31 @ 10:30 UTC
Visibility
Flight Rules
VFR
Cloud Levels
  • Clear skies
Temperature
13°C / 55°F
Dewpoint
11°C / 52°F
Humidity
88%
Altimeter
30.1" Hg
Pressure
1019.32 hPa
Previous

41 mins ago

KBDU 311012Z AUTO 00000KT 10SM CLR 15/11 A3010 RMK AO2
Observed
May-31 @ 10:12 UTC
Visibility
Flight Rules
VFR
Cloud Levels
  • Clear skies
Temperature
15°C / 59°F
Dewpoint
11°C / 52°F
Humidity
77%
Altimeter
30.1" Hg
Pressure
1019.32 hPa
Previous

59 mins ago

KBDU 310954Z AUTO 00000KT 10SM CLR 14/11 A3010 RMK AO2
Observed
May-31 @ 09:54 UTC
Visibility
Flight Rules
VFR
Cloud Levels
  • Clear skies
Temperature
14°C / 57°F
Dewpoint
11°C / 52°F
Humidity
82%
Altimeter
30.1" Hg
Pressure
1019.32 hPa